createdAt,value
2018-12-06T00:00:51.240Z,67.30
2018-12-06T00:01:53.685Z,67.25
2018-12-06T00:02:56.139Z,66.93
2018-12-06T00:03:58.593Z,67.08
2018-12-06T00:05:01.040Z,67.22
2018-12-06T00:06:03.597Z,67.42
2018-12-06T00:07:06.036Z,67.08
2018-12-06T00:08:15.323Z,67.32
2018-12-06T00:09:17.776Z,67.08
2018-12-06T00:10:20.224Z,67.01
2018-12-06T00:11:22.749Z,66.80
2018-12-06T00:12:25.193Z,67.21
2018-12-06T00:13:27.697Z,67.65
2018-12-06T00:14:30.224Z,67.31
2018-12-06T00:15:32.672Z,67.61
2018-12-06T00:16:35.132Z,67.41
2018-12-06T00:17:37.718Z,67.67
2018-12-06T00:18:40.149Z,67.53
2018-12-06T00:19:42.612Z,68.05
2018-12-06T00:20:45.049Z,67.90
2018-12-06T00:21:47.510Z,67.26
2018-12-06T00:22:49.964Z,67.79
2018-12-06T00:23:52.403Z,67.50
2018-12-06T00:24:54.869Z,67.80
2018-12-06T00:25:57.325Z,67.60
2018-12-06T00:26:59.980Z,67.33
2018-12-06T00:28:02.428Z,67.44
2018-12-06T00:29:04.873Z,67.64
2018-12-06T00:30:19.159Z,67.66
2018-12-06T00:31:21.612Z,67.55
2018-12-06T00:32:24.088Z,67.49
2018-12-06T00:33:26.529Z,67.75
2018-12-06T00:34:28.979Z,67.55
2018-12-06T00:35:31.526Z,67.12
2018-12-06T00:36:33.990Z,67.53
2018-12-06T00:37:36.428Z,67.59
2018-12-06T00:38:38.876Z,67.65
2018-12-06T00:39:41.327Z,68.05
2018-12-06T00:40:43.863Z,67.86
2018-12-06T00:41:46.323Z,67.66
2018-12-06T00:42:48.762Z,67.93
2018-12-06T00:43:51.207Z,67.85
2018-12-06T00:44:57.612Z,67.95
2018-12-06T00:46:00.063Z,67.63
2018-12-06T00:47:02.516Z,67.70
2018-12-06T00:48:04.952Z,67.52
2018-12-06T00:49:07.415Z,67.47
2018-12-06T00:50:09.943Z,67.63
2018-12-06T00:51:12.412Z,67.57
2018-12-06T00:52:14.867Z,67.58
2018-12-06T00:53:17.311Z,67.55
2018-12-06T00:54:19.744Z,67.58
2018-12-06T00:55:22.189Z,67.48
2018-12-06T00:56:24.662Z,67.60
2018-12-06T00:57:27.116Z,67.26
2018-12-06T00:58:29.555Z,67.81
2018-12-06T00:59:31.997Z,67.77
2018-12-06T01:00:34.429Z,67.91
2018-12-06T01:01:36.887Z,67.73
2018-12-06T01:02:39.344Z,67.62
2018-12-06T01:03:41.820Z,67.68
2018-12-06T01:04:44.259Z,67.72
2018-12-06T01:05:46.719Z,68.13
2018-12-06T01:06:49.223Z,67.74
2018-12-06T01:07:51.671Z,67.98
2018-12-06T01:08:54.124Z,67.86
2018-12-06T01:09:56.560Z,67.79
2018-12-06T01:10:58.996Z,67.82
2018-12-06T01:12:01.549Z,67.44
2018-12-06T01:13:04.013Z,67.77
2018-12-06T01:14:06.463Z,67.54
2018-12-06T01:15:08.975Z,67.61
2018-12-06T01:16:11.420Z,67.28
2018-12-06T01:17:13.892Z,67.68
2018-12-06T01:18:16.434Z,67.90
2018-12-06T01:19:18.859Z,67.65
2018-12-06T01:20:21.299Z,67.72
2018-12-06T01:21:23.749Z,67.44
2018-12-06T01:22:26.213Z,67.62
2018-12-06T01:23:28.659Z,67.63
2018-12-06T01:24:31.183Z,67.33
2018-12-06T01:25:33.633Z,67.69
2018-12-06T01:26:36.080Z,67.63
2018-12-06T01:27:38.533Z,67.72
2018-12-06T01:28:40.983Z,67.49
2018-12-06T01:29:43.434Z,67.68
2018-12-06T01:30:45.882Z,67.69
2018-12-06T01:31:48.349Z,68.37
2018-12-06T01:32:50.818Z,68.36
2018-12-06T01:33:53.330Z,68.39
2018-12-06T01:34:55.909Z,68.77
2018-12-06T01:35:58.448Z,68.70
2018-12-06T01:37:00.896Z,68.46
2018-12-06T01:38:03.355Z,68.58
2018-12-06T01:39:06.683Z,68.33
2018-12-06T01:40:09.215Z,68.60
2018-12-06T01:41:11.668Z,68.51
2018-12-06T01:42:14.113Z,68.87
2018-12-06T01:43:16.575Z,68.52
2018-12-06T01:44:19.020Z,68.60
2018-12-06T01:45:21.480Z,68.86
2018-12-06T01:46:23.923Z,69.12
2018-12-06T01:47:26.388Z,68.98
2018-12-06T01:48:28.928Z,68.97
2018-12-06T01:49:31.368Z,69.10
2018-12-06T01:50:33.814Z,69.13
2018-12-06T01:51:36.249Z,69.32
2018-12-06T01:52:38.696Z,69.30
2018-12-06T01:53:41.156Z,69.29
2018-12-06T01:54:43.630Z,69.42
2018-12-06T01:55:46.071Z,69.17
2018-12-06T01:56:48.515Z,69.65
2018-12-06T01:57:50.963Z,69.21
2018-12-06T01:58:53.439Z,69.38
2018-12-06T01:59:55.929Z,68.92
2018-12-06T02:00:58.385Z,69.15
2018-12-06T02:02:00.819Z,69.44
2018-12-06T02:03:03.276Z,69.39
2018-12-06T02:04:05.735Z,68.93
2018-12-06T02:05:08.263Z,68.93
2018-12-06T02:06:10.710Z,69.12
2018-12-06T02:07:13.172Z,69.20
2018-12-06T02:08:15.615Z,69.10
2018-12-06T02:09:18.108Z,69.32
2018-12-06T02:10:20.616Z,68.82
2018-12-06T02:11:23.052Z,68.87
2018-12-06T02:12:25.489Z,68.84
2018-12-06T02:13:27.940Z,68.60
2018-12-06T02:14:30.409Z,68.85
2018-12-06T02:15:32.839Z,68.71
2018-12-06T02:16:35.296Z,68.45
2018-12-06T02:17:37.736Z,68.50
2018-12-06T02:18:40.197Z,68.65
2018-12-06T02:19:42.652Z,68.71
2018-12-06T02:20:45.112Z,68.70
2018-12-06T02:21:47.560Z,68.37
2018-12-06T02:22:50.008Z,68.63
2018-12-06T02:23:52.452Z,68.88
2018-12-06T02:24:54.912Z,68.78
2018-12-06T02:25:57.376Z,68.57
2018-12-06T02:26:59.822Z,68.55
2018-12-06T02:28:02.371Z,68.64
2018-12-06T02:29:04.823Z,68.38
2018-12-06T02:30:07.436Z,68.27
2018-12-06T02:31:09.892Z,68.50
2018-12-06T02:32:12.334Z,68.53
2018-12-06T02:33:14.787Z,68.73
2018-12-06T02:34:17.228Z,68.80
2018-12-06T02:35:19.698Z,68.63
2018-12-06T02:36:22.164Z,68.60
2018-12-06T02:37:24.599Z,68.72
2018-12-06T02:38:27.033Z,68.57
2018-12-06T02:39:29.467Z,68.72
2018-12-06T02:40:32.250Z,68.91
2018-12-06T02:41:34.716Z,69.41
2018-12-06T02:42:37.169Z,69.33
2018-12-06T02:43:39.612Z,69.16
2018-12-06T02:44:42.048Z,69.20
2018-12-06T02:45:44.523Z,69.49
2018-12-06T02:46:46.969Z,69.41
2018-12-06T02:47:49.405Z,69.14
2018-12-06T02:48:51.834Z,69.50
2018-12-06T02:49:54.283Z,69.30
2018-12-06T02:50:56.745Z,69.56
2018-12-06T02:51:59.186Z,69.45
2018-12-06T02:53:01.626Z,69.06
2018-12-06T02:54:04.121Z,69.42
2018-12-06T02:55:06.656Z,69.59
2018-12-06T02:56:09.122Z,69.58
2018-12-06T02:57:11.565Z,69.36
2018-12-06T02:58:14.016Z,69.29
2018-12-06T02:59:16.455Z,69.68
2018-12-06T03:00:18.918Z,69.44
2018-12-06T03:01:21.362Z,69.51
2018-12-06T03:02:23.803Z,69.73
2018-12-06T03:03:32.698Z,69.64
2018-12-06T03:04:35.572Z,70.39
2018-12-06T03:05:38.711Z,70.28
2018-12-06T03:06:43.242Z,70.32
2018-12-06T03:07:45.776Z,70.47
2018-12-06T03:08:48.207Z,70.46
2018-12-06T03:09:50.651Z,70.45
2018-12-06T03:10:53.103Z,70.55
2018-12-06T03:11:58.009Z,70.36
2018-12-06T03:13:00.746Z,70.56
2018-12-06T03:14:05.682Z,70.33
2018-12-06T03:15:08.250Z,70.41
2018-12-06T03:16:10.839Z,69.64
2018-12-06T03:17:13.321Z,69.88
2018-12-06T03:18:15.768Z,70.20
2018-12-06T03:19:18.209Z,70.45
2018-12-06T03:20:20.666Z,70.36
2018-12-06T03:21:26.606Z,70.27
2018-12-06T03:22:31.316Z,70.34
2018-12-06T03:23:33.763Z,70.11
2018-12-06T03:24:36.208Z,70.39
2018-12-06T03:25:38.686Z,70.01
2018-12-06T03:26:41.152Z,70.09
2018-12-06T03:27:43.595Z,70.41
2018-12-06T03:28:46.038Z,70.06
2018-12-06T03:29:48.488Z,70.39
2018-12-06T03:30:50.926Z,70.55
2018-12-06T03:31:53.386Z,70.50
2018-12-06T03:32:55.840Z,70.46
2018-12-06T03:33:58.271Z,70.83
2018-12-06T03:35:00.717Z,70.62
2018-12-06T03:36:03.176Z,70.98
2018-12-06T03:37:05.712Z,70.78
2018-12-06T03:38:08.177Z,70.64
2018-12-06T03:39:10.634Z,70.62
2018-12-06T03:40:13.297Z,70.93
2018-12-06T03:41:15.736Z,70.64
2018-12-06T03:42:18.484Z,70.71
2018-12-06T03:43:20.948Z,71.16
2018-12-06T03:44:23.394Z,70.57
2018-12-06T03:45:25.849Z,70.66
2018-12-06T03:46:28.305Z,70.89
2018-12-06T03:47:30.772Z,70.74
2018-12-06T03:48:33.218Z,70.77
2018-12-06T03:49:35.692Z,71.04
2018-12-06T03:50:38.142Z,71.02
2018-12-06T03:51:40.596Z,70.81
2018-12-06T03:52:43.046Z,70.92
2018-12-06T03:53:45.490Z,71.53
2018-12-06T03:54:47.959Z,70.96
2018-12-06T03:55:50.424Z,71.17
2018-12-06T03:56:52.881Z,71.07
2018-12-06T03:57:55.340Z,71.69
2018-12-06T03:58:57.796Z,71.63
2018-12-06T04:00:00.249Z,72.24
2018-12-06T04:01:02.689Z,71.91
2018-12-06T04:02:05.139Z,72.27
2018-12-06T04:03:07.621Z,71.81
2018-12-06T04:04:10.078Z,71.97
2018-12-06T04:05:12.518Z,71.47
2018-12-06T04:06:14.965Z,71.58
2018-12-06T04:07:17.403Z,71.55
2018-12-06T04:08:19.859Z,71.77
2018-12-06T04:09:22.315Z,71.98
2018-12-06T04:10:24.748Z,71.88
2018-12-06T04:11:27.194Z,71.70
2018-12-06T04:12:29.631Z,72.16
2018-12-06T04:13:32.101Z,72.08
2018-12-06T04:14:34.565Z,72.10
2018-12-06T04:15:37.094Z,71.83
2018-12-06T04:16:39.534Z,72.59
2018-12-06T04:17:42.468Z,73.01
2018-12-06T04:18:44.916Z,72.95
2018-12-06T04:19:47.378Z,72.83
2018-12-06T04:20:49.823Z,72.71
2018-12-06T04:21:52.280Z,72.70
2018-12-06T04:22:54.710Z,72.92
2018-12-06T04:23:57.167Z,73.04
2018-12-06T04:24:59.616Z,73.41
2018-12-06T04:26:02.118Z,73.15
2018-12-06T04:27:04.592Z,74.04
2018-12-06T04:28:07.081Z,73.82
2018-12-06T04:29:09.726Z,73.38
2018-12-06T04:30:12.423Z,73.99
2018-12-06T04:31:14.886Z,74.65
2018-12-06T04:32:17.600Z,74.20
2018-12-06T04:33:20.347Z,74.35
2018-12-06T04:34:22.838Z,74.21
2018-12-06T04:35:25.642Z,74.12
2018-12-06T04:36:28.092Z,74.18
2018-12-06T04:37:30.554Z,73.96
2018-12-06T04:38:33.016Z,74.10
2018-12-06T04:39:35.500Z,74.02
2018-12-06T04:40:37.955Z,73.81
2018-12-06T04:41:40.470Z,74.23
2018-12-06T04:42:42.955Z,73.79
2018-12-06T04:43:45.417Z,74.14
2018-12-06T04:44:47.895Z,74.19
2018-12-06T04:45:50.324Z,74.34
2018-12-06T04:46:52.752Z,74.54
2018-12-06T04:47:55.186Z,74.42
2018-12-06T04:48:57.725Z,74.31
2018-12-06T04:50:00.181Z,74.00
2018-12-06T04:51:02.645Z,74.07
2018-12-06T04:52:05.084Z,73.81
2018-12-06T04:53:07.528Z,73.94
2018-12-06T04:54:09.984Z,73.75
2018-12-06T04:55:12.460Z,73.58
2018-12-06T04:56:14.892Z,73.23
2018-12-06T04:57:17.319Z,73.28
2018-12-06T04:58:19.751Z,73.50
2018-12-06T04:59:22.213Z,73.30
2018-12-06T05:00:24.659Z,73.36
2018-12-06T05:01:27.089Z,73.01
2018-12-06T05:02:29.531Z,73.21
2018-12-06T05:03:31.971Z,72.90
2018-12-06T05:04:34.421Z,73.19
2018-12-06T05:05:36.860Z,72.62
2018-12-06T05:06:39.294Z,72.95
2018-12-06T05:07:41.745Z,72.81
2018-12-06T05:09:04.655Z,72.69
2018-12-06T05:10:07.529Z,72.36
2018-12-06T05:11:09.975Z,72.34
2018-12-06T05:12:12.411Z,72.41
2018-12-06T05:13:14.854Z,72.64
2018-12-06T05:14:17.336Z,72.67
2018-12-06T05:15:19.796Z,72.59
2018-12-06T05:16:22.252Z,72.34
2018-12-06T05:17:24.717Z,72.78
2018-12-06T05:18:27.151Z,73.13
2018-12-06T05:19:29.604Z,72.45
2018-12-06T05:20:32.053Z,72.68
2018-12-06T05:21:34.488Z,72.72
2018-12-06T05:22:36.938Z,72.64
2018-12-06T05:23:39.371Z,72.84
2018-12-06T05:24:41.829Z,72.73
2018-12-06T05:25:44.289Z,72.97
2018-12-06T05:26:46.790Z,72.48
2018-12-06T05:27:49.220Z,72.58
2018-12-06T05:28:51.654Z,72.79
2018-12-06T05:29:54.121Z,72.29
2018-12-06T05:30:56.576Z,72.65
2018-12-06T05:31:59.023Z,72.46
2018-12-06T05:33:01.470Z,72.29
2018-12-06T05:34:03.909Z,72.70
2018-12-06T05:35:06.556Z,72.47
2018-12-06T05:36:09.025Z,72.25
2018-12-06T05:37:11.480Z,72.07
2018-12-06T05:38:14.007Z,72.11
2018-12-06T05:39:16.497Z,72.22
2018-12-06T05:40:18.960Z,72.43
2018-12-06T05:41:21.495Z,72.45
2018-12-06T05:42:23.947Z,72.23
2018-12-06T05:43:26.404Z,72.31
2018-12-06T05:44:28.876Z,72.68
2018-12-06T05:45:31.349Z,72.18
2018-12-06T05:46:33.803Z,71.97
2018-12-06T05:47:36.245Z,72.49
2018-12-06T05:48:38.691Z,71.97
2018-12-06T05:49:41.141Z,72.37
2018-12-06T05:50:43.604Z,72.11
2018-12-06T05:51:46.042Z,72.24
2018-12-06T05:52:48.481Z,72.14
2018-12-06T05:53:50.935Z,72.17
2018-12-06T05:54:53.374Z,72.57
2018-12-06T05:55:55.840Z,72.89
2018-12-06T05:56:58.285Z,72.63
2018-12-06T05:58:00.748Z,72.85
2018-12-06T05:59:03.203Z,72.82
2018-12-06T06:00:07.119Z,73.05
2018-12-06T06:01:09.584Z,72.80
2018-12-06T06:02:12.077Z,72.74
2018-12-06T06:03:14.515Z,72.72
2018-12-06T06:04:16.959Z,72.55
2018-12-06T06:05:19.393Z,72.56
2018-12-06T06:06:21.904Z,72.27
2018-12-06T06:07:24.344Z,72.38
2018-12-06T06:08:26.808Z,72.49
2018-12-06T06:09:29.310Z,71.94
2018-12-06T06:10:31.750Z,72.04
2018-12-06T06:11:34.220Z,71.99
2018-12-06T06:12:36.692Z,72.38
2018-12-06T06:13:39.152Z,72.35
2018-12-06T06:14:41.590Z,72.40
2018-12-06T06:15:44.032Z,72.70
2018-12-06T06:16:46.496Z,72.40
2018-12-06T06:17:48.947Z,72.35
2018-12-06T06:18:51.463Z,72.40
2018-12-06T06:19:53.908Z,72.23
2018-12-06T06:20:56.366Z,72.62
2018-12-06T06:21:59.060Z,72.48
2018-12-06T06:23:02.394Z,72.35
2018-12-06T06:24:04.832Z,72.24
2018-12-06T06:25:07.461Z,72.19
2018-12-06T06:26:09.979Z,72.01
2018-12-06T06:27:12.434Z,71.95
2018-12-06T06:28:14.887Z,72.25
2018-12-06T06:29:17.352Z,71.90
2018-12-06T06:30:19.888Z,72.00
2018-12-06T06:31:22.349Z,71.90
2018-12-06T06:32:24.807Z,72.01
2018-12-06T06:33:27.413Z,71.69
2018-12-06T06:34:29.917Z,72.02
2018-12-06T06:35:32.437Z,72.11
2018-12-06T06:36:34.917Z,72.12
2018-12-06T06:37:37.388Z,72.24
2018-12-06T06:38:39.861Z,72.37
2018-12-06T06:39:42.308Z,72.13
2018-12-06T06:40:44.746Z,72.54
2018-12-06T06:41:47.226Z,71.88
2018-12-06T06:42:49.779Z,72.19
2018-12-06T06:43:52.229Z,72.43
2018-12-06T06:44:54.797Z,72.52
2018-12-06T06:45:57.239Z,72.33
2018-12-06T06:46:59.712Z,72.54
2018-12-06T06:48:02.245Z,72.56
2018-12-06T06:49:04.767Z,72.34
2018-12-06T06:50:07.410Z,72.28
2018-12-06T06:51:10.139Z,72.22
2018-12-06T06:52:12.601Z,72.11
2018-12-06T06:53:15.200Z,72.15
2018-12-06T06:54:17.729Z,72.73
2018-12-06T06:55:20.182Z,72.78
2018-12-06T06:56:22.640Z,72.83
2018-12-06T06:57:26.278Z,72.95
2018-12-06T06:58:28.755Z,72.65
2018-12-06T06:59:31.328Z,72.84
2018-12-06T07:00:33.783Z,72.71
2018-12-06T07:01:36.216Z,72.69
2018-12-06T07:02:38.671Z,72.70
2018-12-06T07:03:41.162Z,72.52
2018-12-06T07:04:43.652Z,72.64
2018-12-06T07:05:46.089Z,72.54
2018-12-06T07:06:48.536Z,72.42
2018-12-06T07:07:50.984Z,72.43
2018-12-06T07:08:53.452Z,72.42
2018-12-06T07:09:55.907Z,71.94
2018-12-06T07:10:58.388Z,72.54
2018-12-06T07:12:00.842Z,72.49
2018-12-06T07:13:03.303Z,72.84
2018-12-06T07:14:05.764Z,72.74
2018-12-06T07:15:08.417Z,72.78
2018-12-06T07:16:10.948Z,72.53
2018-12-06T07:17:13.391Z,73.02
2018-12-06T07:18:15.848Z,72.93
2018-12-06T07:19:18.309Z,72.97
2018-12-06T07:20:20.756Z,72.98
2018-12-06T07:21:23.230Z,73.51
2018-12-06T07:22:25.708Z,73.02
2018-12-06T07:23:28.157Z,72.69
2018-12-06T07:24:30.628Z,73.07
2018-12-06T07:25:33.096Z,72.47
2018-12-06T07:26:36.363Z,72.27
2018-12-06T07:27:38.877Z,72.47
2018-12-06T07:28:41.354Z,72.26
2018-12-06T07:29:43.807Z,72.10
2018-12-06T07:30:46.261Z,72.76
2018-12-06T07:31:48.706Z,73.06
2018-12-06T07:32:51.333Z,72.96
2018-12-06T07:33:53.792Z,73.23
2018-12-06T07:34:56.270Z,73.41
2018-12-06T07:35:58.772Z,73.34
2018-12-06T07:37:01.274Z,73.04
2018-12-06T07:38:03.820Z,72.85
2018-12-06T07:39:06.949Z,72.70
2018-12-06T07:40:09.616Z,72.28
2018-12-06T07:41:12.117Z,72.28
2018-12-06T07:42:14.628Z,72.34
2018-12-06T07:43:17.073Z,72.13
2018-12-06T07:44:19.521Z,72.69
2018-12-06T07:45:21.983Z,71.95
2018-12-06T07:46:24.451Z,72.63
2018-12-06T07:48:35.819Z,72.17
2018-12-06T07:49:39.718Z,72.56
2018-12-06T07:50:42.220Z,72.82
2018-12-06T07:51:44.688Z,72.98
2018-12-06T07:52:47.156Z,72.68
2018-12-06T07:53:49.638Z,72.55
2018-12-06T07:54:52.092Z,72.73
2018-12-06T07:55:54.648Z,72.46
2018-12-06T07:56:57.102Z,72.02
2018-12-06T07:57:59.560Z,71.94
2018-12-06T07:59:02.025Z,72.12
2018-12-06T08:00:07.564Z,71.97
2018-12-06T08:01:10.196Z,72.29
2018-12-06T08:02:12.660Z,72.07
2018-12-06T08:03:15.106Z,72.10
2018-12-06T08:04:17.544Z,71.65
2018-12-06T08:05:20.027Z,71.65
2018-12-06T08:06:22.504Z,71.81
2018-12-06T08:07:25.070Z,71.80
2018-12-06T08:08:27.530Z,71.87
2018-12-06T08:09:29.992Z,71.88
2018-12-06T08:10:32.432Z,71.97
2018-12-06T08:11:34.900Z,71.92
2018-12-06T08:12:37.370Z,72.49
2018-12-06T08:13:39.806Z,72.26
2018-12-06T08:14:42.279Z,72.04
2018-12-06T08:15:44.803Z,72.12
2018-12-06T08:16:47.286Z,71.93
2018-12-06T08:17:49.758Z,71.75
2018-12-06T08:18:52.228Z,72.39
2018-12-06T08:19:54.680Z,72.34
2018-12-06T08:20:57.224Z,72.39
2018-12-06T08:21:59.749Z,72.29
2018-12-06T08:23:02.278Z,71.78
2018-12-06T08:24:04.720Z,72.29
2018-12-06T08:25:07.403Z,72.17
2018-12-06T08:26:09.844Z,72.27
2018-12-06T08:27:12.319Z,72.39
2018-12-06T08:28:14.770Z,72.19
2018-12-06T08:29:17.218Z,72.20
2018-12-06T08:30:19.661Z,72.61
2018-12-06T08:31:22.144Z,72.41
2018-12-06T08:32:24.651Z,72.59
2018-12-06T08:33:27.121Z,72.97
2018-12-06T08:34:29.750Z,72.55
2018-12-06T08:35:32.194Z,72.67
2018-12-06T08:36:34.632Z,72.63
2018-12-06T08:37:37.109Z,72.50
2018-12-06T08:38:39.550Z,72.55
2018-12-06T08:39:41.980Z,72.65
2018-12-06T08:40:44.429Z,72.47
2018-12-06T08:41:46.871Z,72.15
2018-12-06T08:42:49.325Z,72.37
2018-12-06T08:43:51.793Z,72.54
2018-12-06T08:44:54.248Z,72.44
2018-12-06T08:45:56.686Z,72.62
2018-12-06T08:46:59.131Z,72.54
2018-12-06T08:48:01.595Z,72.68
2018-12-06T08:49:04.123Z,72.73
2018-12-06T08:50:06.816Z,72.65
2018-12-06T08:51:09.255Z,72.72
2018-12-06T08:52:11.711Z,72.81
2018-12-06T08:53:14.176Z,72.65
2018-12-06T08:54:16.616Z,72.88
2018-12-06T08:55:19.061Z,73.58
2018-12-06T08:56:21.530Z,74.87
2018-12-06T08:57:23.993Z,74.94
2018-12-06T08:58:26.498Z,75.75
2018-12-06T08:59:28.967Z,76.43
2018-12-06T09:00:31.426Z,77.41
2018-12-06T09:01:33.924Z,78.30
2018-12-06T09:02:36.444Z,78.65
2018-12-06T09:03:38.932Z,78.59
2018-12-06T09:04:41.404Z,78.70
2018-12-06T09:05:43.838Z,79.29
2018-12-06T09:06:46.292Z,79.38
2018-12-06T09:07:48.740Z,79.55
2018-12-06T09:08:51.194Z,79.41
2018-12-06T09:09:53.663Z,79.45
2018-12-06T09:10:56.105Z,79.76
2018-12-06T09:11:58.537Z,79.92
2018-12-06T09:13:00.968Z,80.21
2018-12-06T09:14:03.600Z,80.21
2018-12-06T09:15:06.552Z,80.43
2018-12-06T09:16:08.985Z,80.29
2018-12-06T09:17:11.434Z,80.57
2018-12-06T09:18:13.880Z,80.67
2018-12-06T09:19:16.324Z,80.58
2018-12-06T09:20:18.791Z,80.27
2018-12-06T09:21:21.233Z,80.49
2018-12-06T09:22:24.548Z,80.37
2018-12-06T09:23:27.186Z,80.75
2018-12-06T09:24:29.656Z,80.92
2018-12-06T09:25:32.120Z,81.15
2018-12-06T09:26:34.554Z,80.82
2018-12-06T09:27:37.000Z,80.79
2018-12-06T09:28:39.484Z,81.04
2018-12-06T09:29:41.968Z,81.29
2018-12-06T09:30:44.419Z,81.12
2018-12-06T09:31:46.867Z,81.17
2018-12-06T09:32:49.339Z,81.00
2018-12-06T09:34:02.511Z,81.24
2018-12-06T09:35:05.134Z,81.42
2018-12-06T09:36:07.572Z,81.52
2018-12-06T09:37:10.020Z,81.51
2018-12-06T09:38:12.539Z,81.49
2018-12-06T09:39:15.057Z,81.27
2018-12-06T09:40:17.595Z,81.37
2018-12-06T09:41:20.075Z,81.24
2018-12-06T09:42:22.510Z,81.26
2018-12-06T09:43:24.972Z,81.35
2018-12-06T09:44:27.412Z,81.25
2018-12-06T09:45:29.966Z,81.23
2018-12-06T09:46:33.251Z,81.02
2018-12-06T09:47:35.780Z,81.00
2018-12-06T09:48:38.268Z,80.81
2018-12-06T09:49:40.755Z,80.69
2018-12-06T09:50:43.210Z,80.74
2018-12-06T09:51:45.704Z,80.79
2018-12-06T09:52:48.220Z,80.82
2018-12-06T09:53:50.657Z,81.01
2018-12-06T09:54:53.318Z,80.87
2018-12-06T09:55:55.782Z,80.73
2018-12-06T09:56:58.223Z,80.49
2018-12-06T09:58:00.696Z,80.31
2018-12-06T09:59:03.186Z,80.15
2018-12-06T10:00:08.876Z,80.54
2018-12-06T10:01:11.419Z,80.54
2018-12-06T10:02:13.860Z,80.44
2018-12-06T10:03:16.348Z,80.69
2018-12-06T10:04:18.785Z,80.70
2018-12-06T10:05:21.272Z,80.23
2018-12-06T10:06:23.737Z,80.49
2018-12-06T10:07:26.203Z,80.41
2018-12-06T10:08:28.729Z,80.86
2018-12-06T10:09:31.173Z,80.87
2018-12-06T10:10:33.636Z,80.73
2018-12-06T10:11:36.108Z,80.90
2018-12-06T10:12:38.756Z,80.85
2018-12-06T10:13:41.425Z,80.52
2018-12-06T10:14:43.885Z,80.17
2018-12-06T10:15:46.389Z,80.31
2018-12-06T10:16:48.960Z,80.49
2018-12-06T10:17:51.397Z,80.65
2018-12-06T10:18:53.920Z,80.55
2018-12-06T10:19:56.369Z,80.51
2018-12-06T10:20:58.839Z,80.36
2018-12-06T10:22:01.338Z,80.48
2018-12-06T10:23:03.816Z,80.43
2018-12-06T10:24:06.267Z,80.60
2018-12-06T10:25:08.735Z,80.54
2018-12-06T10:26:11.217Z,80.46
2018-12-06T10:27:13.668Z,80.50
2018-12-06T10:28:16.118Z,80.32
2018-12-06T10:29:18.575Z,80.46
2018-12-06T10:30:21.019Z,80.44
2018-12-06T10:31:23.513Z,80.60
2018-12-06T10:32:26.113Z,80.69
2018-12-06T10:33:28.556Z,80.56
2018-12-06T10:34:31.021Z,80.71
2018-12-06T10:35:33.489Z,80.75
2018-12-06T10:36:35.978Z,80.56
2018-12-06T10:37:38.476Z,80.81
2018-12-06T10:38:40.936Z,80.73
2018-12-06T10:39:43.410Z,80.51
2018-12-06T10:40:45.875Z,80.48
2018-12-06T10:41:48.335Z,80.02
2018-12-06T10:42:50.824Z,80.04
2018-12-06T10:43:53.273Z,79.99
2018-12-06T10:44:55.767Z,79.98
2018-12-06T10:45:58.237Z,79.93
2018-12-06T10:47:00.779Z,79.95
2018-12-06T10:48:03.292Z,79.92
2018-12-06T10:49:05.736Z,79.78
2018-12-06T10:50:08.263Z,80.17
2018-12-06T10:53:22.494Z,80.09
2018-12-06T10:54:24.934Z,80.37
2018-12-06T10:55:27.604Z,80.14
2018-12-06T10:56:30.049Z,79.90
2018-12-06T10:57:32.621Z,79.95
2018-12-06T10:58:35.081Z,79.98
2018-12-06T10:59:37.525Z,79.94
2018-12-06T11:00:45.696Z,80.14
2018-12-06T11:01:50.185Z,80.09
2018-12-06T11:02:54.670Z,80.08
2018-12-06T11:04:00.189Z,79.67
2018-12-06T11:05:02.650Z,79.81
2018-12-06T11:06:05.114Z,79.52
2018-12-06T11:07:07.688Z,79.45
2018-12-06T11:08:10.214Z,79.35
2018-12-06T11:09:12.893Z,79.19
2018-12-06T11:10:15.481Z,79.74
2018-12-06T11:11:17.996Z,79.79
2018-12-06T11:12:20.603Z,79.81
2018-12-06T11:13:23.063Z,79.53
2018-12-06T11:14:25.537Z,79.39
2018-12-06T11:15:28.023Z,79.19
2018-12-06T11:16:30.465Z,79.30
2018-12-06T11:17:32.933Z,79.37
2018-12-06T11:18:35.426Z,79.52
2018-12-06T11:19:38.796Z,79.68
2018-12-06T11:20:41.258Z,79.55
2018-12-06T11:21:43.793Z,79.45
2018-12-06T11:22:46.320Z,79.64
2018-12-06T11:23:48.770Z,79.51
2018-12-06T11:24:51.354Z,79.38
2018-12-06T11:25:53.833Z,79.57
2018-12-06T11:26:56.309Z,79.72
2018-12-06T11:27:58.790Z,79.66
2018-12-06T11:29:01.248Z,79.69
2018-12-06T11:30:05.973Z,80.04
2018-12-06T11:31:08.539Z,80.06
2018-12-06T11:32:10.976Z,79.93
2018-12-06T11:33:13.419Z,79.79
2018-12-06T11:34:15.876Z,79.73
2018-12-06T11:35:18.457Z,79.79
2018-12-06T11:36:20.909Z,79.59
2018-12-06T11:37:23.368Z,79.52
2018-12-06T11:38:25.842Z,79.74
2018-12-06T11:39:28.364Z,80.08
2018-12-06T11:40:30.842Z,79.97
2018-12-06T11:41:33.373Z,80.50
2018-12-06T11:42:35.865Z,80.24
2018-12-06T11:43:38.319Z,80.43
2018-12-06T11:44:40.799Z,80.61
2018-12-06T11:45:43.277Z,80.51
2018-12-06T11:46:45.793Z,80.33
2018-12-06T11:47:48.248Z,80.63
2018-12-06T11:48:50.706Z,80.69
2018-12-06T11:49:53.178Z,80.52
2018-12-06T11:50:55.647Z,80.36
2018-12-06T11:51:58.095Z,80.34
2018-12-06T11:53:00.545Z,80.18
2018-12-06T11:54:03.084Z,80.08
2018-12-06T11:55:05.656Z,80.04
2018-12-06T11:56:08.204Z,79.67
2018-12-06T11:57:10.754Z,79.74
2018-12-06T11:58:13.263Z,79.45
2018-12-06T11:59:15.700Z,79.56
2018-12-06T12:00:18.151Z,79.70
2018-12-06T12:01:20.630Z,79.72
2018-12-06T12:02:23.075Z,79.52
2018-12-06T12:03:25.541Z,79.01
2018-12-06T12:04:28.004Z,79.31
2018-12-06T12:05:30.492Z,79.01
2018-12-06T12:06:32.951Z,78.81
2018-12-06T12:07:35.416Z,78.85
2018-12-06T12:08:37.863Z,78.79
2018-12-06T12:09:40.368Z,78.92
2018-12-06T12:10:42.845Z,78.68
2018-12-06T12:11:45.305Z,78.67
2018-12-06T12:12:47.772Z,78.68
2018-12-06T12:13:50.219Z,78.32
2018-12-06T12:14:52.668Z,78.55
2018-12-06T12:15:55.132Z,78.04
2018-12-06T12:16:57.585Z,78.08
2018-12-06T12:18:00.032Z,77.76
2018-12-06T12:19:02.477Z,77.92
2018-12-06T12:20:06.854Z,77.92
2018-12-06T12:21:09.321Z,77.61
2018-12-06T12:22:11.804Z,77.46
2018-12-06T12:23:14.329Z,77.29
2018-12-06T12:24:16.791Z,76.91
2018-12-06T12:25:19.265Z,77.04
2018-12-06T12:26:21.749Z,76.59
2018-12-06T12:27:24.199Z,76.63
2018-12-06T12:28:26.657Z,76.87
2018-12-06T12:29:29.126Z,76.81
2018-12-06T12:30:31.573Z,76.92
2018-12-06T12:31:34.041Z,77.07
2018-12-06T12:32:36.480Z,76.82
2018-12-06T12:33:38.919Z,76.66
2018-12-06T12:34:41.348Z,76.56
2018-12-06T12:35:43.799Z,76.52
2018-12-06T12:36:46.280Z,76.49
2018-12-06T12:37:48.740Z,76.19
2018-12-06T12:38:51.200Z,75.65
2018-12-06T12:39:53.656Z,75.99
2018-12-06T12:40:56.111Z,75.96
2018-12-06T12:41:58.568Z,75.69
2018-12-06T12:43:01.021Z,75.25
2018-12-06T12:44:03.556Z,75.68
2018-12-06T12:45:06.979Z,75.18
2018-12-06T12:46:09.419Z,74.91
2018-12-06T12:47:11.883Z,74.49
2018-12-06T12:48:14.353Z,73.50
2018-12-06T12:49:16.795Z,74.04
2018-12-06T12:50:19.252Z,73.76
2018-12-06T12:51:21.709Z,73.75
2018-12-06T12:52:24.188Z,73.31
2018-12-06T12:53:26.651Z,73.61
2018-12-06T12:54:29.102Z,73.20
2018-12-06T12:55:31.579Z,72.69
2018-12-06T12:56:34.046Z,72.42
2018-12-06T12:57:36.533Z,72.69
2018-12-06T12:58:39.014Z,72.63
2018-12-06T12:59:41.484Z,72.47
2018-12-06T13:00:43.945Z,72.16
2018-12-06T13:01:46.387Z,72.22
2018-12-06T13:02:48.855Z,71.89
2018-12-06T13:03:51.320Z,72.07
2018-12-06T13:04:53.783Z,72.26
2018-12-06T13:05:56.237Z,72.39
2018-12-06T13:07:02.669Z,72.43
2018-12-06T13:08:05.131Z,72.11
2018-12-06T13:09:07.609Z,71.61
2018-12-06T13:10:10.060Z,71.71
2018-12-06T13:11:12.508Z,71.44
2018-12-06T13:12:14.962Z,71.88
2018-12-06T13:13:17.435Z,71.93
2018-12-06T13:14:19.973Z,72.24
2018-12-06T13:15:22.428Z,71.99
2018-12-06T13:16:24.880Z,72.45
2018-12-06T13:17:27.342Z,71.44
2018-12-06T13:18:29.920Z,71.44
2018-12-06T13:19:32.428Z,71.40
2018-12-06T13:20:34.883Z,71.30
2018-12-06T13:21:37.339Z,71.71
2018-12-06T13:22:39.807Z,71.92
2018-12-06T13:23:42.292Z,71.70
2018-12-06T13:24:44.771Z,71.94
2018-12-06T13:25:52.204Z,71.90
2018-12-06T13:26:54.659Z,71.14
2018-12-06T13:27:57.124Z,71.40
2018-12-06T13:28:59.618Z,71.51
2018-12-06T13:30:02.077Z,71.12